Time;durP1;ratioP1;P1;durP2;ratioP2;P2;SDS_P1;SDS_P2;PMS_P1;PMS_P2;Temp;Humidity;BMP_temperature;BMP_pressure;BME280_temperature;BME280_humidity;BME280_pressure;Samples;Min_cycle;Max_cycle;Signal;HPM_P1;HPM_P2
2022/09/14 00:14:35;;;;;;;;;;;;;;;11.58;96.13;99548.19;4985460;28;1657;-64
2022/09/14 00:17:02;;;;;;;;;;;;;;;11.35;97.10;99545.34;4994309;28;1472;-61
2022/09/14 00:19:28;;;;;;;;;;;;;;;11.17;98.03;99543.56;4994864;28;871;-63
2022/09/14 00:21:56;;;;;;;;;;;;;;;11.09;98.58;99542.06;4977238;28;1494;-61
2022/09/14 00:24:24;;;;;;;;;;;;;;;11.09;98.65;99544.84;4994738;28;1036;-61
2022/09/14 00:26:50;;;;;;;;;;;;;;;11.02;98.71;99545.72;4994531;28;1914;-61
2022/09/14 00:29:17;;;;;;;;;;;;;;;10.93;98.69;99552.94;4994653;28;851;-61
2022/09/14 00:31:44;;;;;;;;;;;;;;;10.81;98.79;99552.25;4977066;28;1166;-62
2022/09/14 00:34:14;;;;;;;;;;;;;;;10.71;98.56;99557.88;4994487;28;846;-62
2022/09/14 00:36:43;;;;;;;;;;;;;;;10.54;98.74;99545.78;4994516;28;858;-62
2022/09/14 00:39:10;;;;;;;;;;;;;;;10.40;99.15;99552.22;4994443;28;807;-62
2022/09/14 00:41:40;;;;;;;;;;;;;;;10.35;99.28;99550.69;4994303;28;986;-61
2022/09/14 00:44:26;;;;;;;;;;;;;;;10.39;99.15;99551.44;4994327;28;807;-62
2022/09/14 00:46:56;;;;;;;;;;;;;;;10.42;98.70;99547.88;4994451;28;1890;-61
2022/09/14 00:49:31;;;;;;;;;;;;;;;10.44;98.18;99553.00;4994266;28;867;-61
2022/09/14 00:52:09;;;;;;;;;;;;;;;10.48;97.76;99552.97;4994196;28;823;-61
2022/09/14 00:54:40;;;;;;;;;;;;;;;10.53;97.30;99556.06;4994165;28;819;-63
2022/09/14 00:57:11;;;;;;;;;;;;;;;10.65;96.71;99560.31;4994157;28;885;-62
2022/09/14 00:59:39;;;;;;;;;;;;;;;10.72;96.27;99554.72;4994277;28;834;-63
2022/09/14 01:02:07;;;;;;;;;;;;;;;10.81;96.16;99543.94;4993028;28;823;-62
2022/09/14 01:04:37;;;;;;;;;;;;;;;10.92;95.63;99543.84;4994613;28;776;-61
2022/09/14 01:07:22;;;;;;;;;;;;;;;11.00;95.20;99550.88;4976385;28;1890;-61
2022/09/14 01:09:50;;;;;;;;;;;;;;;11.10;94.84;99548.41;4994067;28;827;-61
2022/09/14 01:12:26;;;;;;;;;;;;;;;11.18;94.54;99549.88;4994414;28;893;-61
2022/09/14 01:15:08;;;;;;;;;;;;;;;11.19;93.92;99549.47;4975958;28;1284;-62
2022/09/14 01:17:53;;;;;;;;;;;;;;;11.26;93.58;99550.59;4994025;28;811;-61
2022/09/14 01:20:25;;;;;;;;;;;;;;;11.28;93.27;99548.19;4993824;28;870;-62
2022/09/14 01:22:55;;;;;;;;;;;;;;;11.26;92.98;99545.06;4993949;28;906;-61
2022/09/14 01:25:39;;;;;;;;;;;;;;;11.27;92.62;99555.72;4993474;28;803;-61
2022/09/14 01:28:11;;;;;;;;;;;;;;;11.26;92.32;99548.59;4993322;28;1975;-61
2022/09/14 01:30:41;;;;;;;;;;;;;;;11.20;92.26;99545.53;4993523;28;839;-61
2022/09/14 01:33:17;;;;;;;;;;;;;;;11.15;91.85;99545.97;4993378;28;855;-61
2022/09/14 01:36:12;;;;;;;;;;;;;;;11.13;91.42;99548.34;4993635;28;886;-61
2022/09/14 01:38:43;;;;;;;;;;;;;;;11.12;91.20;99546.81;4975781;28;1300;-62
2022/09/14 01:41:11;;;;;;;;;;;;;;;11.10;90.94;99549.19;4993208;28;827;-63
2022/09/14 01:43:39;;;;;;;;;;;;;;;11.07;90.83;99546.47;4993240;28;871;-62
2022/09/14 01:46:20;;;;;;;;;;;;;;;11.03;90.56;99546.47;4993168;28;846;-61
2022/09/14 01:49:03;;;;;;;;;;;;;;;10.99;90.66;99546.53;4993098;28;2007;-62
2022/09/14 01:51:36;;;;;;;;;;;;;;;10.95;90.59;99547.78;4993478;28;887;-62
2022/09/14 01:54:07;;;;;;;;;;;;;;;10.93;90.64;99550.19;4993232;28;893;-61
2022/09/14 01:56:40;;;;;;;;;;;;;;;10.92;90.61;99548.59;4992963;28;824;-61
2022/09/14 01:59:12;;;;;;;;;;;;;;;10.89;90.80;99544.66;4992968;28;858;-63
2022/09/14 02:01:46;;;;;;;;;;;;;;;10.88;90.74;99539.53;4993141;28;823;-61
2022/09/14 02:04:16;;;;;;;;;;;;;;;10.89;90.65;99552.19;4992910;28;839;-62
2022/09/14 02:06:45;;;;;;;;;;;;;;;10.93;90.69;99548.19;4992785;28;1890;-62
2022/09/14 02:09:15;;;;;;;;;;;;;;;10.95;90.65;99548.56;4975141;28;1317;-63
2022/09/14 02:11:40;;;;;;;;;;;;;;;10.97;90.41;99548.94;4993005;28;918;-61
2022/09/14 02:14:07;;;;;;;;;;;;;;;10.99;90.34;99554.84;4992683;28;1028;-61
2022/09/14 02:16:34;;;;;;;;;;;;;;;11.07;90.30;99549.22;4992457;28;1191;-61
2022/09/14 02:19:00;;;;;;;;;;;;;;;11.09;90.61;99550.38;4992624;28;846;-61
2022/09/14 02:21:30;;;;;;;;;;;;;;;11.15;90.31;99545.19;4992585;28;839;-62
2022/09/14 02:23:59;;;;;;;;;;;;;;;11.19;90.61;99555.00;4992753;28;867;-62
2022/09/14 02:26:26;;;;;;;;;;;;;;;11.21;90.90;99547.06;4992483;28;883;-62
2022/09/14 02:28:54;;;;;;;;;;;;;;;11.27;90.71;99549.41;4974998;28;1970;-63
2022/09/14 02:31:40;;;;;;;;;;;;;;;11.30;90.54;99545.81;4992676;28;815;-63
2022/09/14 02:34:15;;;;;;;;;;;;;;;11.32;90.18;99551.72;4992454;28;775;-61
2022/09/14 02:36:54;;;;;;;;;;;;;;;11.30;90.56;99549.34;4992399;28;854;-61
2022/09/14 02:39:44;;;;;;;;;;;;;;;11.28;90.46;99540.69;4992228;28;910;-62
2022/09/14 02:42:14;;;;;;;;;;;;;;;11.28;90.90;99550.97;4992281;28;807;-62
2022/09/14 02:44:50;;;;;;;;;;;;;;;11.23;90.96;99552.22;4992526;28;850;-63
2022/09/14 02:47:25;;;;;;;;;;;;;;;11.17;91.22;99554.63;4992185;28;1966;-62
2022/09/14 02:50:10;;;;;;;;;;;;;;;11.15;91.57;99547.94;4992299;28;787;-62
2022/09/14 02:52:43;;;;;;;;;;;;;;;11.17;91.89;99542.78;4992070;28;843;-62
2022/09/14 02:55:11;;;;;;;;;;;;;;;11.15;91.88;99545.97;4992771;28;756;-63
2022/09/14 02:57:57;;;;;;;;;;;;;;;11.09;91.91;99541.28;4992444;28;843;-62
2022/09/14 03:00:23;;;;;;;;;;;;;;;10.98;92.18;99544.97;4992110;28;818;-61
2022/09/14 03:02:50;;;;;;;;;;;;;;;10.98;92.76;99544.97;4992143;28;822;-62
2022/09/14 03:05:16;;;;;;;;;;;;;;;11.01;93.17;99546.91;4992052;28;839;-61
2022/09/14 03:07:43;;;;;;;;;;;;;;;11.01;92.98;99546.13;4992010;28;1994;-62
2022/09/14 03:10:09;;;;;;;;;;;;;;;10.98;93.20;99544.97;4991858;28;842;-62
2022/09/14 03:12:38;;;;;;;;;;;;;;;10.93;93.26;99542.66;4991925;28;945;-62
2022/09/14 03:15:05;;;;;;;;;;;;;;;10.88;93.75;99542.31;4974405;28;1288;-61
2022/09/14 03:17:32;;;;;;;;;;;;;;;10.89;93.96;99539.13;4991987;28;836;-61
2022/09/14 03:19:58;;;;;;;;;;;;;;;10.90;94.23;99537.16;4992242;28;811;-62
2022/09/14 03:22:25;;;;;;;;;;;;;;;10.91;94.52;99545.03;4991935;28;804;-61
2022/09/14 03:24:52;;;;;;;;;;;;;;;10.97;95.33;99551.69;4992033;28;807;-61
2022/09/14 03:27:18;;;;;;;;;;;;;;;11.15;95.22;99556.25;4995104;28;1970;-63
2022/09/14 03:29:45;;;;;;;;;;;;;;;11.27;95.02;99555.72;4995694;28;847;-63
2022/09/14 03:32:12;;;;;;;;;;;;;;;11.36;95.27;99553.22;4995713;28;917;-62
2022/09/14 03:34:39;;;;;;;;;;;;;;;11.43;95.34;99555.13;4995525;28;827;-61
2022/09/14 03:37:06;;;;;;;;;;;;;;;11.45;94.75;99561.03;4995611;28;811;-62
2022/09/14 03:39:34;;;;;;;;;;;;;;;11.45;94.36;99559.03;4995429;28;791;-61
2022/09/14 03:42:01;;;;;;;;;;;;;;;11.42;93.91;99565.41;4995533;28;776;-62
2022/09/14 03:44:28;;;;;;;;;;;;;;;11.39;93.08;99568.22;4995402;28;890;-62
2022/09/14 03:46:55;;;;;;;;;;;;;;;11.31;93.05;99566.72;4995644;28;1890;-62
2022/09/14 03:49:20;;;;;;;;;;;;;;;11.26;92.80;99573.50;4995315;28;819;-62
2022/09/14 03:51:47;;;;;;;;;;;;;;;11.15;92.55;99579.16;4995291;28;799;-63
2022/09/14 03:54:14;;;;;;;;;;;;;;;11.07;92.43;99572.13;4995241;28;870;-61
2022/09/14 03:56:40;;;;;;;;;;;;;;;10.98;92.07;99574.59;4977777;28;1272;-62
2022/09/14 03:59:14;;;;;;;;;;;;;;;10.86;92.28;99577.88;4995511;28;807;-61
2022/09/14 04:01:41;;;;;;;;;;;;;;;10.77;92.18;99581.91;4995375;28;846;-61
2022/09/14 04:04:08;;;;;;;;;;;;;;;10.73;92.43;99580.38;4995442;28;826;-61
2022/09/14 04:18:53;;;;;;;;;;;;;;;11.15;91.93;99584.69;4993492;28;1178;-61
2022/09/14 04:21:21;;;;;;;;;;;;;;;11.09;92.19;99582.78;4977294;28;1324;-62
2022/09/14 04:23:48;;;;;;;;;;;;;;;11.03;92.52;99585.19;4994939;28;854;-62
2022/09/14 04:26:16;;;;;;;;;;;;;;;10.93;92.82;99578.59;4994955;28;921;-62
2022/09/14 04:28:43;;;;;;;;;;;;;;;10.89;93.11;99588.13;4994588;28;1964;-62
2022/09/14 04:31:10;;;;;;;;;;;;;;;10.88;93.78;99581.81;4994644;28;831;-62
2022/09/14 04:33:37;;;;;;;;;;;;;;;10.97;94.01;99584.09;4994717;28;834;-62
2022/09/14 04:36:10;;;;;;;;;;;;;;;11.26;93.44;99590.09;4994504;28;858;-62
2022/09/14 04:38:37;;;;;;;;;;;;;;;11.41;92.68;99596.25;4994638;28;808;-61
2022/09/14 04:41:05;;;;;;;;;;;;;;;11.53;92.16;99594.94;4994396;28;800;-62
2022/09/14 04:43:32;;;;;;;;;;;;;;;11.63;92.15;99596.81;4994452;28;843;-62
2022/09/14 04:58:10;;;;;;;;;;;;;;;12.88;86.06;99608.81;4994475;28;606;-62
2022/09/14 05:00:38;;;;;;;;;;;;;;;12.87;85.58;99606.47;4994110;28;859;-61
2022/09/14 05:03:04;;;;;;;;;;;;;;;12.87;85.13;99612.78;4994005;28;886;-62
2022/09/14 05:05:34;;;;;;;;;;;;;;;12.93;85.13;99606.75;4976520;28;1234;-61
2022/09/14 05:08:01;;;;;;;;;;;;;;;12.97;84.33;99613.81;4993703;28;1961;-61
2022/09/14 05:10:42;;;;;;;;;;;;;;;13.06;84.04;99608.50;5109538;27;1276;-61
2022/09/14 05:13:09;;;;;;;;;;;;;;;13.20;83.10;99610.22;5109416;28;853;-61
2022/09/14 05:15:35;;;;;;;;;;;;;;;13.39;82.16;99611.47;5109382;28;871;-61
2022/09/14 05:18:02;;;;;;;;;;;;;;;13.67;80.90;99610.13;5109338;28;826;-61
2022/09/14 05:20:29;;;;;;;;;;;;;;;13.99;79.29;99610.66;5109401;28;846;-61
2022/09/14 05:22:55;;;;;;;;;;;;;;;14.28;77.22;99613.59;5109227;28;861;-61
2022/09/14 05:25:22;;;;;;;;;;;;;;;14.48;75.53;99621.84;5109248;28;822;-61
2022/09/14 05:27:49;;;;;;;;;;;;;;;14.69;74.43;99617.81;5109209;28;806;-61
2022/09/14 05:30:15;;;;;;;;;;;;;;;14.85;74.01;99617.00;5109095;28;1910;-61
2022/09/14 05:32:42;;;;;;;;;;;;;;;15.02;72.89;99617.75;5109296;28;902;-61
2022/09/14 05:35:08;;;;;;;;;;;;;;;15.22;72.11;99610.06;5109202;28;810;-61
2022/09/14 05:37:36;;;;;;;;;;;;;;;15.39;71.49;99610.81;5109147;28;798;-61
2022/09/14 05:40:03;;;;;;;;;;;;;;;15.57;70.78;99609.53;5142245;27;1225;-61
2022/09/14 05:42:30;;;;;;;;;;;;;;;15.79;70.17;99609.69;5109005;28;810;-61
2022/09/14 05:44:57;;;;;;;;;;;;;;;15.96;69.36;99602.84;5109065;28;878;-61
2022/09/14 05:47:24;;;;;;;;;;;;;;;16.30;68.49;99615.31;5109077;28;786;-61
2022/09/14 05:49:50;;;;;;;;;;;;;;;16.81;66.20;99618.09;5108997;28;1886;-61
2022/09/14 05:52:16;;;;;;;;;;;;;;;17.22;64.41;99621.91;5108920;28;824;-61
2022/09/14 05:54:44;;;;;;;;;;;;;;;17.48;62.12;99619.00;5109082;28;789;-61
2022/09/14 05:57:11;;;;;;;;;;;;;;;17.71;61.97;99621.34;5108992;28;857;-61
2022/09/14 05:59:38;;;;;;;;;;;;;;;18.07;61.25;99628.41;5109448;28;810;-61
2022/09/14 06:02:05;;;;;;;;;;;;;;;18.25;60.49;99624.13;5109007;28;755;-61
2022/09/14 06:04:32;;;;;;;;;;;;;;;18.34;59.98;99613.75;5108922;28;861;-61
2022/09/14 06:06:59;;;;;;;;;;;;;;;18.42;59.57;99619.09;5108537;28;1023;-62
2022/09/14 06:09:26;;;;;;;;;;;;;;;18.49;58.75;99621.59;5108326;28;2000;-61
2022/09/14 06:11:54;;;;;;;;;;;;;;;18.61;58.54;99619.91;5107284;28;1281;-62
2022/09/14 06:14:20;;;;;;;;;;;;;;;18.76;57.36;99620.88;5108581;28;1046;-62
2022/09/14 06:16:57;;;;;;;;;;;;;;;18.91;57.16;99627.47;5108466;28;833;-62
2022/09/14 06:19:24;;;;;;;;;;;;;;;19.15;56.25;99630.44;5108216;28;830;-62
2022/09/14 06:21:49;;;;;;;;;;;;;;;19.41;55.10;99629.38;5095828;28;838;-62
2022/09/14 06:24:16;;;;;;;;;;;;;;;19.65;53.05;99630.28;5093196;28;1135;-62
2022/09/14 06:26:42;;;;;;;;;;;;;;;20.14;51.20;99628.47;5094525;28;846;-61
2022/09/14 06:29:08;;;;;;;;;;;;;;;20.96;48.77;99623.75;5094321;28;1902;-62
2022/09/14 06:31:34;;;;;;;;;;;;;;;21.91;46.12;99624.81;5094423;28;794;-62
2022/09/14 06:34:01;;;;;;;;;;;;;;;22.83;44.00;99625.75;5094334;28;877;-61
2022/09/14 06:39:29;;;;;;;;;;;;;;;24.07;40.55;99629.97;5094278;28;620;-62
2022/09/14 06:41:56;;;;;;;;;;;;;;;24.50;39.49;99634.94;5094455;28;861;-62
2022/09/14 06:44:23;;;;;;;;;;;;;;;24.70;38.62;99631.19;5094131;28;823;-62
2022/09/14 06:46:50;;;;;;;;;;;;;;;24.75;38.15;99619.94;5094047;28;802;-61
2022/09/14 06:49:19;;;;;;;;;;;;;;;24.61;38.84;99632.94;5093965;28;1893;-61
2022/09/14 06:51:47;;;;;;;;;;;;;;;24.21;39.40;99625.44;5094464;28;779;-61
2022/09/14 06:54:37;;;;;;;;;;;;;;;23.81;39.61;99629.97;5094722;28;758;-61
2022/09/14 06:57:06;;;;;;;;;;;;;;;23.73;40.13;99632.44;5093885;28;1082;-61
2022/09/14 06:59:34;;;;;;;;;;;;;;;24.40;38.67;99623.78;5093841;28;845;-61
2022/09/14 07:02:13;;;;;;;;;;;;;;;25.16;37.26;99625.25;5092519;28;1357;-61
2022/09/14 07:04:52;;;;;;;;;;;;;;;25.99;35.67;99626.00;5092324;28;1318;-61
2022/09/14 07:07:30;;;;;;;;;;;;;;;26.13;34.97;99627.03;5093710;28;849;-62
2022/09/14 07:09:59;;;;;;;;;;;;;;;25.87;34.63;99621.59;5093212;28;1990;-61
2022/09/14 07:12:31;;;;;;;;;;;;;;;25.41;34.71;99634.91;5094087;28;857;-61
2022/09/14 07:15:06;;;;;;;;;;;;;;;25.24;35.12;99634.03;5093587;28;890;-60
2022/09/14 07:17:36;;;;;;;;;;;;;;;25.24;35.45;99628.38;5093427;28;1208;-61
2022/09/14 07:20:16;;;;;;;;;;;;;;;25.21;35.39;99623.75;5093442;28;850;-61
2022/09/14 07:22:56;;;;;;;;;;;;;;;25.08;35.55;99631.91;5093301;28;1091;-60
2022/09/14 07:25:24;;;;;;;;;;;;;;;25.47;35.28;99627.16;5093663;28;873;-60
2022/09/14 07:28:22;;;;;;;;;;;;;;;25.51;34.86;99640.31;5092033;28;1304;-61
2022/09/14 07:30:58;;;;;;;;;;;;;;;26.21;34.28;99633.72;5091917;28;1206;-61
2022/09/14 07:33:28;;;;;;;;;;;;;;;26.70;32.94;99639.09;5092394;28;893;-61
2022/09/14 07:36:16;;;;;;;;;;;;;;;27.12;32.36;99636.38;5093057;28;1107;-61
2022/09/14 07:47:52;;;;;;;;;;;;;;;27.99;30.10;99643.41;5093316;28;596;-60
2022/09/14 07:50:30;;;;;;;;;;;;;;;27.99;29.62;99634.88;5091582;28;1898;-61
2022/09/14 07:53:06;;;;;;;;;;;;;;;28.04;29.38;99641.84;5125663;27;1454;-60
2022/09/14 07:55:57;;;;;;;;;;;;;;;27.88;30.01;99644.25;5092620;28;1136;-61
2022/09/14 07:58:40;;;;;;;;;;;;;;;27.83;29.84;99644.28;5092699;28;1140;-61
2022/09/14 08:01:21;;;;;;;;;;;;;;;28.12;29.60;99639.19;5092846;28;810;-61
2022/09/14 08:03:50;;;;;;;;;;;;;;;28.60;29.04;99638.53;5092537;28;837;-62
2022/09/14 08:06:26;;;;;;;;;;;;;;;28.41;28.62;99632.72;5091265;28;1353;-62
2022/09/14 08:08:54;;;;;;;;;;;;;;;28.67;27.93;99637.91;5092225;28;1906;-62
2022/09/14 08:11:34;;;;;;;;;;;;;;;28.57;27.58;99630.28;5092429;28;893;-61
2022/09/14 08:14:05;;;;;;;;;;;;;;;28.54;28.04;99628.50;5092630;28;1247;-61
2022/09/14 08:16:37;;;;;;;;;;;;;;;28.66;27.83;99624.25;5092378;28;841;-62
2022/09/14 08:19:09;;;;;;;;;;;;;;;28.68;27.22;99628.09;5092308;28;842;-62
2022/09/14 08:21:43;;;;;;;;;;;;;;;28.60;26.52;99627.16;5092330;28;830;-61
2022/09/14 08:27:15;;;;;;;;;;;;;;;28.39;27.89;99621.13;5092043;28;1172;-62
2022/09/14 08:29:49;;;;;;;;;;;;;;;28.95;27.76;99619.00;5090808;28;1948;-62
2022/09/14 08:32:20;;;;;;;;;;;;;;;29.12;27.20;99613.91;5090743;28;1400;-62
2022/09/14 08:34:51;;;;;;;;;;;;;;;28.52;27.71;99623.34;5092022;28;829;-62
2022/09/14 08:37:20;;;;;;;;;;;;;;;28.63;27.67;99614.69;5091950;28;863;-63
2022/09/14 08:40:01;;;;;;;;;;;;;;;28.62;27.32;99606.72;5092021;28;782;-62
2022/09/14 08:42:33;;;;;;;;;;;;;;;28.59;27.87;99599.25;5092018;28;896;-62
2022/09/14 08:45:10;;;;;;;;;;;;;;;28.55;27.53;99601.59;5090387;28;1195;-61
2022/09/14 08:47:41;;;;;;;;;;;;;;;28.45;27.96;99596.25;5092217;28;798;-61
2022/09/14 08:50:16;;;;;;;;;;;;;;;28.18;27.69;99595.22;5091731;28;1933;-62
2022/09/14 08:52:55;;;;;;;;;;;;;;;28.08;27.98;99585.53;5092016;28;834;-63
2022/09/14 08:55:47;;;;;;;;;;;;;;;28.30;27.71;99588.13;5091729;28;857;-63
2022/09/14 08:58:35;;;;;;;;;;;;;;;28.46;27.33;99592.13;5091678;28;1225;-61
2022/09/14 09:01:21;;;;;;;;;;;;;;;28.44;26.90;99586.19;5091745;28;860;-61
2022/09/14 09:04:49;;;;;;;;;;;;;;;28.20;27.46;99589.00;5091862;28;916;-62
2022/09/14 09:07:11;;;;;;;;;;;;;;;27.81;27.72;99582.34;5080751;28;1250;-61
2022/09/14 09:12:45;;;;;;;;;;;;;;;27.88;27.62;99573.28;5091396;28;1387;-61
2022/09/14 09:18:35;;;;;;;;;;;;;;;27.86;27.62;99567.34;5091392;28;1088;-61
2022/09/14 09:21:20;;;;;;;;;;;;;;;;;;;;;
2022/09/14 09:26:55;;;;;;;;;;;;;;;27.79;27.82;99567.13;5091600;28;604;-60
2022/09/14 09:29:22;;;;;;;;;;;;;;;27.82;27.75;99568.91;5091354;28;1901;-61
2022/09/14 09:31:53;;;;;;;;;;;;;;;27.57;27.55;99563.19;5090082;28;874;-62
2022/09/14 09:34:28;;;;;;;;;;;;;;;27.60;28.21;99570.63;5124165;28;1293;-62
2022/09/14 09:37:03;;;;;;;;;;;;;;;27.53;28.18;99574.03;5091398;28;798;-62
2022/09/14 09:39:55;;;;;;;;;;;;;;;27.49;27.18;99560.13;5091487;28;809;-63
2022/09/14 09:42:25;;;;;;;;;;;;;;;27.46;27.55;99555.50;5091396;28;793;-62
2022/09/14 09:45:10;;;;;;;;;;;;;;;27.77;27.57;99550.63;5090088;28;1305;-61
2022/09/14 09:47:44;;;;;;;;;;;;;;;28.05;26.70;99561.75;5091305;28;848;-62
2022/09/14 09:50:15;;;;;;;;;;;;;;;28.09;27.54;99558.63;5091228;28;1950;-62
2022/09/14 09:52:50;;;;;;;;;;;;;;;28.20;27.36;99550.00;5091753;28;841;-63
2022/09/14 09:55:27;;;;;;;;;;;;;;;28.41;26.80;99544.63;5090017;28;1231;-62
2022/09/14 09:57:55;;;;;;;;;;;;;;;28.27;26.81;99543.75;5095324;28;798;-62
2022/09/14 10:00:26;;;;;;;;;;;;;;;28.15;27.35;99539.47;5094975;28;869;-62
2022/09/14 10:02:53;;;;;;;;;;;;;;;27.94;26.37;99546.91;5095355;28;1020;-63
2022/09/14 10:05:22;;;;;;;;;;;;;;;28.07;27.16;99541.34;5095181;28;845;-62
2022/09/14 10:07:49;;;;;;;;;;;;;;;28.27;27.54;99540.91;5094985;28;850;-62
2022/09/14 10:10:16;;;;;;;;;;;;;;;28.45;26.96;99552.88;5094623;28;1898;-62
2022/09/14 10:13:09;;;;;;;;;;;;;;;28.66;26.76;99538.97;5094858;28;806;-62
2022/09/14 10:15:36;;;;;;;;;;;;;;;28.58;27.44;99547.31;5086254;28;1293;-62
2022/09/14 10:18:12;;;;;;;;;;;;;;;28.76;27.01;99539.34;5094656;28;817;-61
2022/09/14 10:20:41;;;;;;;;;;;;;;;28.84;27.47;99526.81;5094639;28;871;-62
2022/09/14 10:23:17;;;;;;;;;;;;;;;28.98;26.82;99526.94;5093257;28;1199;-62
2022/09/14 10:25:44;;;;;;;;;;;;;;;28.38;27.47;99542.06;5094569;28;786;-63
2022/09/14 10:28:28;;;;;;;;;;;;;;;28.35;27.37;99531.78;5094700;28;791;-63
2022/09/14 10:31:05;;;;;;;;;;;;;;;28.57;27.23;99534.41;5094572;28;810;-63
2022/09/14 10:33:34;;;;;;;;;;;;;;;28.79;26.93;99530.50;5094708;28;853;-62
2022/09/14 10:39:17;;;;;;;;;;;;;;;29.24;26.04;99523.47;5094364;28;704;-63
2022/09/14 10:41:48;;;;;;;;;;;;;;;29.37;26.44;99523.53;5094497;28;790;-62
2022/09/14 10:56:56;;;;;;;;;;;;;;;30.04;25.54;99512.34;5094374;28;707;-63
2022/09/14 10:59:30;;;;;;;;;;;;;;;30.10;24.91;99508.06;5071342;28;1506;-63
2022/09/14 11:17:49;;;;;;;;;;;;;;;30.76;24.36;99491.53;4972657;28;1046;-62
2022/09/14 11:23:30;;;;;;;;;;;;;;;29.72;24.45;99481.84;4972231;28;961;-62
2022/09/14 11:28:59;;;;;;;;;;;;;;;30.16;24.01;99485.19;4972346;28;1910;-62
2022/09/14 11:31:32;;;;;;;;;;;;;;;30.16;23.54;99475.88;4972325;28;1181;-63
2022/09/14 11:34:19;;;;;;;;;;;;;;;30.45;23.78;99474.81;4972214;28;866;-63
2022/09/14 11:36:49;;;;;;;;;;;;;;;30.62;23.32;99482.22;4989454;28;1153;-63
2022/09/14 11:39:20;;;;;;;;;;;;;;;30.96;22.33;99470.91;4991582;28;811;-63
2022/09/14 11:41:53;;;;;;;;;;;;;;;30.73;22.35;99482.75;5021832;28;1076;-62
2022/09/14 11:44:23;;;;;;;;;;;;;;;30.98;22.18;99478.88;5052824;28;849;-63
2022/09/14 11:47:19;;;;;;;;;;;;;;;31.38;21.72;99470.16;5053240;28;818;-63
2022/09/14 11:50:04;;;;;;;;;;;;;;;31.95;21.19;99468.19;5052315;28;1971;-63
2022/09/14 11:52:31;;;;;;;;;;;;;;;31.98;20.83;99479.81;5052662;28;901;-63
2022/09/14 11:54:58;;;;;;;;;;;;;;;31.96;20.76;99471.81;5052867;28;787;-62
2022/09/14 12:00:45;;;;;;;;;;;;;;;31.73;21.19;99475.28;5052393;28;525;-63
2022/09/14 12:03:23;;;;;;;;;;;;;;;31.95;20.66;99476.00;5052456;28;810;-63
2022/09/14 12:05:49;;;;;;;;;;;;;;;31.93;21.44;99461.50;5052418;28;850;-63
2022/09/14 12:08:45;;;;;;;;;;;;;;;32.31;21.10;99461.03;5052380;28;894;-63
2022/09/14 12:11:16;;;;;;;;;;;;;;;33.15;20.63;99467.09;5051729;28;1427;-61
2022/09/14 12:13:42;;;;;;;;;;;;;;;33.08;20.14;99455.66;5050987;28;1234;-61
2022/09/14 12:16:09;;;;;;;;;;;;;;;33.23;19.99;99452.03;5074307;28;1271;-61
2022/09/14 12:18:36;;;;;;;;;;;;;;;33.02;19.91;99452.91;5092123;28;833;-60
2022/09/14 12:21:07;;;;;;;;;;;;;;;32.82;19.96;99436.63;5092294;28;841;-60
2022/09/14 12:23:42;;;;;;;;;;;;;;;32.64;19.47;99450.69;5092921;28;830;-61
2022/09/14 12:26:13;;;;;;;;;;;;;;;32.35;19.35;99433.59;5092297;28;794;-60
2022/09/14 12:28:46;;;;;;;;;;;;;;;32.77;19.43;99431.88;5091938;28;1967;-60
2022/09/14 12:31:33;;;;;;;;;;;;;;;33.05;19.06;99420.31;5090883;28;1009;-61
2022/09/14 12:34:08;;;;;;;;;;;;;;;32.62;19.49;99424.00;5092376;28;798;-60
2022/09/14 12:36:43;;;;;;;;;;;;;;;32.41;19.85;99424.06;5092122;28;840;-60
2022/09/14 12:39:16;;;;;;;;;;;;;;;32.57;20.32;99417.13;5092047;28;1050;-60
2022/09/14 12:42:00;;;;;;;;;;;;;;;32.51;19.95;99417.25;5092036;28;857;-61
2022/09/14 12:44:30;;;;;;;;;;;;;;;32.01;20.65;99419.50;5092062;28;767;-60
2022/09/14 12:46:56;;;;;;;;;;;;;;;31.86;20.61;99411.56;5091875;28;794;-60
2022/09/14 12:49:29;;;;;;;;;;;;;;;31.72;20.69;99415.84;5091877;28;1862;-60
2022/09/14 12:51:58;;;;;;;;;;;;;;;31.75;21.24;99397.59;5092062;28;842;-59
2022/09/14 12:54:57;;;;;;;;;;;;;;;31.70;21.46;99407.06;5091828;28;822;-60
2022/09/14 12:57:40;;;;;;;;;;;;;;;31.73;21.04;99394.53;5068239;28;1360;-61
2022/09/14 13:00:15;;;;;;;;;;;;;;;31.82;20.88;99405.44;5091642;28;842;-61
2022/09/14 13:02:52;;;;;;;;;;;;;;;31.60;20.87;99392.53;5091792;28;858;-60
2022/09/14 13:05:23;;;;;;;;;;;;;;;31.37;21.08;99388.69;5090433;28;1195;-61
2022/09/14 13:07:50;;;;;;;;;;;;;;;31.07;21.57;99390.72;5090417;28;1210;-60
2022/09/14 13:10:30;;;;;;;;;;;;;;;30.95;21.98;99398.00;5091465;28;1902;-62
2022/09/14 13:12:59;;;;;;;;;;;;;;;31.10;21.79;99392.44;5091764;28;794;-64
2022/09/14 13:15:31;;;;;;;;;;;;;;;31.34;20.79;99390.56;5091136;28;1232;-63
2022/09/14 13:18:05;;;;;;;;;;;;;;;31.60;20.46;99388.88;5091521;28;879;-63
2022/09/14 13:20:33;;;;;;;;;;;;;;;31.69;20.39;99379.84;5091709;28;829;-64
2022/09/14 13:23:00;;;;;;;;;;;;;;;31.79;20.30;99383.69;5091704;28;853;-61
2022/09/14 13:25:37;;;;;;;;;;;;;;;31.93;20.40;99375.78;5091482;28;798;-62
2022/09/14 13:28:06;;;;;;;;;;;;;;;32.22;20.83;99385.13;5091728;28;860;-61
2022/09/14 13:30:52;;;;;;;;;;;;;;;32.13;20.25;99382.78;5091988;28;1910;-61
2022/09/14 13:33:22;;;;;;;;;;;;;;;32.03;20.02;99385.41;5095570;28;834;-61
2022/09/14 13:35:51;;;;;;;;;;;;;;;32.09;19.92;99388.88;5095500;28;839;-62
2022/09/14 13:38:21;;;;;;;;;;;;;;;32.20;20.11;99390.63;5095493;28;826;-61
2022/09/14 13:40:50;;;;;;;;;;;;;;;32.37;19.98;99393.00;5095424;28;913;-61
2022/09/14 13:43:18;;;;;;;;;;;;;;;32.56;20.25;99392.69;5095351;28;877;-61
2022/09/14 13:45:45;;;;;;;;;;;;;;;32.69;20.03;99386.84;5095359;28;802;-61
2022/09/14 14:00:22;;;;;;;;;;;;;;;32.74;19.56;99396.56;5095065;28;664;-63
2022/09/14 14:02:51;;;;;;;;;;;;;;;32.58;19.16;99392.88;5094997;28;842;-62
2022/09/14 14:05:22;;;;;;;;;;;;;;;32.73;19.59;99377.88;5094891;28;821;-62
2022/09/14 14:07:49;;;;;;;;;;;;;;;32.95;19.20;99380.03;5094880;28;887;-62
2022/09/14 14:10:25;;;;;;;;;;;;;;;32.94;19.00;99380.59;5095162;28;1898;-62
2022/09/14 14:12:55;;;;;;;;;;;;;;;32.74;19.00;99382.28;5093454;28;1388;-62
2022/09/14 14:15:24;;;;;;;;;;;;;;;32.50;19.22;99392.09;5094524;28;1245;-62
2022/09/14 14:17:53;;;;;;;;;;;;;;;32.32;18.96;99393.91;5094735;28;826;-63
2022/09/14 14:20:31;;;;;;;;;;;;;;;32.38;19.30;99399.47;5094606;28;787;-62
2022/09/14 14:23:00;;;;;;;;;;;;;;;32.30;19.85;99403.06;5094655;28;944;-63
2022/09/14 14:25:32;;;;;;;;;;;;;;;31.99;19.79;99396.44;5094878;28;853;-62
2022/09/14 14:28:02;;;;;;;;;;;;;;;31.93;20.02;99396.53;5093098;28;1179;-62
2022/09/14 14:30:29;;;;;;;;;;;;;;;32.21;19.84;99397.88;5094411;28;1902;-62
2022/09/14 14:32:56;;;;;;;;;;;;;;;32.24;19.54;99408.19;5094397;28;799;-64
2022/09/14 14:35:25;;;;;;;;;;;;;;;32.23;19.68;99408.75;5093033;28;1312;-61
2022/09/14 14:37:53;;;;;;;;;;;;;;;31.92;19.67;99409.31;5094343;28;778;-62
2022/09/14 14:40:20;;;;;;;;;;;;;;;31.60;19.96;99418.25;5094535;28;841;-62
2022/09/14 14:42:47;;;;;;;;;;;;;;;31.43;19.66;99403.59;5093727;28;874;-62
2022/09/14 14:45:17;;;;;;;;;;;;;;;31.46;20.01;99420.41;5094226;28;1021;-63
2022/09/14 14:47:45;;;;;;;;;;;;;;;31.64;19.91;99420.72;5094214;28;831;-63
2022/09/14 14:50:15;;;;;;;;;;;;;;;31.69;19.86;99419.81;5093972;28;1893;-62
2022/09/14 14:52:42;;;;;;;;;;;;;;;31.74;19.42;99416.03;5094175;28;889;-62
2022/09/14 14:55:09;;;;;;;;;;;;;;;31.86;19.32;99420.13;5094171;28;865;-62
2022/09/14 14:57:38;;;;;;;;;;;;;;;31.95;19.73;99418.84;5093993;28;937;-62
2022/09/14 15:00:10;;;;;;;;;;;;;;;31.65;19.77;99414.47;5093834;28;849;-63
2022/09/14 15:02:37;;;;;;;;;;;;;;;31.20;20.53;99409.09;5092605;28;1211;-61
2022/09/14 15:05:04;;;;;;;;;;;;;;;30.65;21.45;99407.75;5094038;28;872;-61
2022/09/14 15:07:30;;;;;;;;;;;;;;;30.16;21.70;99416.78;5093784;28;910;-62
2022/09/14 15:09:57;;;;;;;;;;;;;;;29.77;22.21;99412.63;5094083;28;1893;-62
2022/09/14 15:12:23;;;;;;;;;;;;;;;29.51;22.62;99410.50;5093647;28;872;-62
2022/09/14 15:14:49;;;;;;;;;;;;;;;29.28;22.83;99405.16;5093721;28;802;-64
2022/09/14 15:17:16;;;;;;;;;;;;;;;29.01;22.83;99401.44;5093384;28;1282;-63
2022/09/14 15:19:43;;;;;;;;;;;;;;;28.81;23.20;99402.03;5093824;28;897;-62
2022/09/14 15:22:10;;;;;;;;;;;;;;;28.59;23.51;99408.78;5093413;28;839;-62
2022/09/14 15:24:37;;;;;;;;;;;;;;;28.31;23.85;99404.19;5093478;28;818;-64